createdAt,value
2022-10-23T00:00:43.214Z,14.12
2022-10-23T00:03:12.602Z,14.11
2022-10-23T00:05:41.676Z,14.07
2022-10-23T00:08:09.433Z,14.09
2022-10-23T00:10:41.378Z,14.09
2022-10-23T00:13:09.716Z,14.08
2022-10-23T00:15:38.111Z,14.00
2022-10-23T00:18:06.676Z,13.96
2022-10-23T00:20:36.085Z,13.96
2022-10-23T00:23:04.010Z,13.99
2022-10-23T00:25:32.566Z,13.93
2022-10-23T00:28:00.542Z,13.93
2022-10-23T00:30:28.499Z,13.91
2022-10-23T00:32:57.101Z,13.86
2022-10-23T00:35:25.003Z,13.83
2022-10-23T00:37:54.598Z,13.84
2022-10-23T00:40:22.516Z,13.81
2022-10-23T00:42:50.444Z,13.81
2022-10-23T00:45:22.399Z,13.76
2022-10-23T00:47:51.082Z,13.79
2022-10-23T00:50:20.428Z,13.81
2022-10-23T00:52:51.748Z,13.78
2022-10-23T00:55:24.445Z,13.74
2022-10-23T00:57:52.620Z,13.72
2022-10-23T01:00:23.871Z,13.63
2022-10-23T01:02:52.310Z,13.68
2022-10-23T01:05:25.028Z,13.62
2022-10-23T01:07:58.961Z,13.51
2022-10-23T01:10:36.089Z,13.52
2022-10-23T01:13:12.594Z,13.54
2022-10-23T01:15:46.293Z,13.48
2022-10-23T01:18:22.242Z,13.40
2022-10-23T01:20:59.305Z,13.43
2022-10-23T01:23:44.424Z,13.40
2022-10-23T01:26:27.772Z,13.36
2022-10-23T01:29:02.697Z,13.32
2022-10-23T01:31:35.565Z,13.29
2022-10-23T01:34:14.081Z,13.28
2022-10-23T01:36:48.321Z,13.26
2022-10-23T01:39:19.869Z,13.21
2022-10-23T01:41:52.845Z,13.24
2022-10-23T01:44:32.533Z,13.22
2022-10-23T01:47:02.636Z,13.20
2022-10-23T01:49:34.794Z,13.22
2022-10-23T01:52:07.486Z,13.19
2022-10-23T01:54:40.653Z,13.10
2022-10-23T01:57:11.915Z,13.11
2022-10-23T01:59:46.398Z,13.06
2022-10-23T02:02:15.981Z,13.04
2022-10-23T02:04:50.776Z,13.03
2022-10-23T02:07:18.810Z,12.97
2022-10-23T02:09:46.800Z,12.92
2022-10-23T02:12:20.051Z,12.91
2022-10-23T02:14:56.050Z,12.90
2022-10-23T02:17:34.413Z,12.90
2022-10-23T02:20:15.287Z,12.89
2022-10-23T02:22:53.318Z,12.88
2022-10-23T02:25:26.698Z,12.80
2022-10-23T02:27:59.539Z,12.79
2022-10-23T02:30:38.960Z,12.69
2022-10-23T02:33:11.853Z,12.76
2022-10-23T02:35:39.965Z,12.75
2022-10-23T02:38:33.314Z,12.76
2022-10-23T02:41:11.521Z,12.78
2022-10-23T02:43:48.287Z,12.80
2022-10-23T02:46:23.429Z,12.76
2022-10-23T02:48:59.201Z,12.71
2022-10-23T02:51:36.648Z,12.72
2022-10-23T02:54:08.723Z,12.78
2022-10-23T02:56:45.388Z,12.70
2022-10-23T02:59:24.712Z,12.72
2022-10-23T03:02:02.024Z,12.71
2022-10-23T03:04:32.923Z,12.68
2022-10-23T03:07:01.299Z,12.66
2022-10-23T03:09:29.767Z,12.68
2022-10-23T03:11:57.759Z,12.69
2022-10-23T03:14:25.811Z,12.64
2022-10-23T03:16:55.155Z,12.61
2022-10-23T03:19:23.226Z,12.61
2022-10-23T03:21:51.112Z,12.59
2022-10-23T03:24:19.878Z,12.56
2022-10-23T03:26:48.134Z,12.48
2022-10-23T03:29:16.080Z,12.53
2022-10-23T03:31:46.774Z,12.57
2022-10-23T03:34:16.066Z,12.52
2022-10-23T03:36:44.169Z,12.55
2022-10-23T03:39:12.199Z,12.48
2022-10-23T03:41:40.204Z,12.42
2022-10-23T03:44:08.993Z,12.52
2022-10-23T03:46:36.992Z,12.44
2022-10-23T03:49:05.859Z,12.35
2022-10-23T03:51:35.886Z,12.32
2022-10-23T03:54:05.270Z,12.33
2022-10-23T03:56:33.664Z,12.40
2022-10-23T03:59:01.650Z,12.35
2022-10-23T04:01:29.732Z,12.35
2022-10-23T04:03:57.718Z,12.39
2022-10-23T04:06:27.156Z,12.35
2022-10-23T04:08:59.540Z,12.31
2022-10-23T04:11:27.744Z,12.32
2022-10-23T04:13:55.680Z,12.28
2022-10-23T04:16:24.270Z,12.27
2022-10-23T04:18:53.005Z,12.26
2022-10-23T04:21:20.967Z,12.21
2022-10-23T04:23:48.991Z,12.25
2022-10-23T04:26:20.750Z,12.27
2022-10-23T04:28:49.083Z,12.24
2022-10-23T04:31:17.277Z,12.21
2022-10-23T04:33:45.286Z,12.23
2022-10-23T04:36:27.063Z,12.22
2022-10-23T04:38:55.175Z,12.23
2022-10-23T04:41:24.592Z,12.31
2022-10-23T04:43:52.652Z,12.30
2022-10-23T04:46:21.057Z,12.33
2022-10-23T04:48:51.287Z,12.24
2022-10-23T04:51:39.331Z,12.25
2022-10-23T04:54:37.404Z,12.20
2022-10-23T04:57:24.793Z,12.22
2022-10-23T05:00:15.652Z,12.19
2022-10-23T05:02:53.207Z,12.21
2022-10-23T05:05:21.994Z,12.22
2022-10-23T05:08:10.480Z,12.26
2022-10-23T05:10:53.417Z,12.31
2022-10-23T05:13:22.768Z,12.28
2022-10-23T05:15:53.209Z,12.23
2022-10-23T05:18:26.128Z,12.22
2022-10-23T05:20:59.220Z,12.23
2022-10-23T05:23:28.400Z,12.38
2022-10-23T05:26:03.233Z,12.34
2022-10-23T05:28:33.888Z,12.33
2022-10-23T05:31:05.088Z,12.34
2022-10-23T05:33:37.560Z,12.33
2022-10-23T05:36:07.321Z,12.33
2022-10-23T05:38:36.182Z,12.35
2022-10-23T05:41:11.567Z,12.35
2022-10-23T05:43:40.945Z,12.42
2022-10-23T05:46:28.023Z,12.45
2022-10-23T05:49:31.585Z,12.49
2022-10-23T05:52:21.940Z,12.54
2022-10-23T05:55:12.351Z,12.60
2022-10-23T05:58:03.126Z,12.61
2022-10-23T06:00:58.668Z,12.65
2022-10-23T06:03:46.928Z,12.72
2022-10-23T06:06:15.485Z,12.89
2022-10-23T06:08:49.408Z,12.86
2022-10-23T06:11:20.673Z,12.92
2022-10-23T06:16:32.285Z,13.03
2022-10-23T06:19:01.031Z,13.09
2022-10-23T06:21:29.029Z,13.14
2022-10-23T06:23:57.603Z,13.20
2022-10-23T06:26:32.659Z,13.27
2022-10-23T06:29:12.383Z,13.34
2022-10-23T06:31:44.093Z,13.44
2022-10-23T06:34:13.972Z,13.53
2022-10-23T06:36:42.703Z,13.64
2022-10-23T06:39:31.960Z,13.83
2022-10-23T06:42:15.648Z,13.88
2022-10-23T06:44:55.652Z,14.06
2022-10-23T06:47:52.662Z,14.22
2022-10-23T06:50:49.343Z,14.36
2022-10-23T06:53:23.735Z,14.53
2022-10-23T06:56:00.526Z,14.76
2022-10-23T06:58:28.754Z,14.88
2022-10-23T07:01:06.802Z,14.86
2022-10-23T07:03:37.098Z,14.94
2022-10-23T07:06:10.256Z,15.09
2022-10-23T07:08:39.816Z,15.20
2022-10-23T07:11:27.500Z,15.36
2022-10-23T07:13:56.939Z,15.66
2022-10-23T07:16:25.535Z,15.90
2022-10-23T07:18:59.494Z,16.02
2022-10-23T07:21:28.097Z,16.15
2022-10-23T07:24:02.927Z,16.31
2022-10-23T07:26:32.885Z,16.72
2022-10-23T07:29:01.083Z,16.92
2022-10-23T07:31:29.377Z,16.97
2022-10-23T07:34:17.008Z,17.04
2022-10-23T07:36:47.348Z,17.15
2022-10-23T07:39:15.677Z,17.14
2022-10-23T07:41:50.856Z,17.39
2022-10-23T07:44:21.970Z,17.40
2022-10-23T07:46:53.915Z,17.82
2022-10-23T07:49:23.388Z,17.60
2022-10-23T07:51:52.848Z,17.70
2022-10-23T07:54:21.763Z,17.96
2022-10-23T07:57:01.984Z,18.21
2022-10-23T07:59:55.717Z,18.42
2022-10-23T08:02:25.283Z,19.03
2022-10-23T08:04:55.409Z,19.07
2022-10-23T08:07:28.741Z,19.09
2022-10-23T08:09:58.717Z,19.81
2022-10-23T08:12:27.534Z,20.26
2022-10-23T08:14:56.594Z,20.41
2022-10-23T08:17:28.349Z,20.32
2022-10-23T08:20:09.799Z,20.83
2022-10-23T08:22:42.894Z,21.50
2022-10-23T08:25:13.195Z,21.87
2022-10-23T08:27:41.560Z,22.29
2022-10-23T08:30:11.332Z,22.39
2022-10-23T08:32:39.421Z,22.75
2022-10-23T08:35:09.837Z,22.41
2022-10-23T08:37:38.613Z,21.54
2022-10-23T08:40:07.953Z,22.13
2022-10-23T08:43:01.056Z,22.74
2022-10-23T08:45:34.472Z,23.16
2022-10-23T08:48:23.698Z,22.95
2022-10-23T08:51:28.392Z,23.08
2022-10-23T08:54:04.020Z,23.69
2022-10-23T08:56:36.033Z,23.65
2022-10-23T08:59:12.303Z,23.58
2022-10-23T09:01:43.861Z,23.84
2022-10-23T09:04:14.302Z,23.69
2022-10-23T09:06:49.809Z,24.21
2022-10-23T09:09:39.928Z,24.08
2022-10-23T09:12:12.802Z,24.38
2022-10-23T09:14:56.535Z,24.94
2022-10-23T09:17:26.790Z,24.59
2022-10-23T09:20:00.540Z,25.02
2022-10-23T09:22:30.664Z,25.03
2022-10-23T09:24:58.640Z,25.59
2022-10-23T09:27:26.561Z,25.73
2022-10-23T09:29:56.343Z,25.90
2022-10-23T09:32:35.241Z,25.89
2022-10-23T09:35:03.296Z,26.02
2022-10-23T09:37:35.916Z,25.89
2022-10-23T09:40:19.032Z,25.49
2022-10-23T09:42:55.653Z,25.47
2022-10-23T09:45:29.725Z,26.36
2022-10-23T09:48:15.244Z,26.60
2022-10-23T09:51:01.990Z,26.78
2022-10-23T09:53:35.941Z,27.03
2022-10-23T09:56:07.847Z,27.10
2022-10-23T09:58:39.772Z,27.13
2022-10-23T10:01:07.896Z,26.89
2022-10-23T10:03:53.333Z,27.47
2022-10-23T10:06:28.008Z,28.06
2022-10-23T10:08:59.250Z,27.88
2022-10-23T10:11:35.096Z,28.31
2022-10-23T10:14:41.576Z,28.19
2022-10-23T10:17:20.116Z,27.65
2022-10-23T10:20:08.344Z,27.64
2022-10-23T10:22:42.919Z,28.45
2022-10-23T10:25:18.417Z,28.49
2022-10-23T10:28:00.219Z,28.81
2022-10-23T10:30:37.976Z,29.24
2022-10-23T10:33:10.565Z,29.12
2022-10-23T10:35:44.193Z,29.59
2022-10-23T10:38:23.759Z,29.48
2022-10-23T10:41:15.414Z,29.39
2022-10-23T10:43:53.520Z,29.25
2022-10-23T10:46:28.969Z,28.83
2022-10-23T10:49:02.685Z,29.01
2022-10-23T10:51:41.863Z,29.48
2022-10-23T10:54:22.166Z,29.64
2022-10-23T10:56:51.799Z,30.03
2022-10-23T10:59:24.405Z,29.98
2022-10-23T11:02:01.227Z,29.98
2022-10-23T11:04:38.279Z,29.96
2022-10-23T11:07:10.881Z,29.65
2022-10-23T11:09:40.352Z,30.00
2022-10-23T11:12:17.930Z,29.89
2022-10-23T11:14:46.654Z,30.26
2022-10-23T11:17:20.109Z,30.26
2022-10-23T11:19:52.992Z,29.95
2022-10-23T11:22:27.359Z,29.73
2022-10-23T11:25:19.422Z,29.25
2022-10-23T11:28:13.001Z,29.53
2022-10-23T11:30:56.313Z,29.98
2022-10-23T11:34:02.608Z,29.77
2022-10-23T11:36:45.604Z,29.85
2022-10-23T11:39:21.135Z,29.53
2022-10-23T11:41:52.194Z,30.12
2022-10-23T11:44:39.300Z,29.92
2022-10-23T11:47:27.401Z,29.85
2022-10-23T11:50:15.716Z,30.19
2022-10-23T11:53:15.815Z,30.34
2022-10-23T11:56:06.925Z,30.57
2022-10-23T11:58:46.893Z,30.60
2022-10-23T12:01:34.969Z,30.68
2022-10-23T12:04:08.049Z,30.72
2022-10-23T12:06:41.452Z,30.38
2022-10-23T12:09:24.617Z,30.16
2022-10-23T12:12:15.260Z,29.80
2022-10-23T12:14:45.174Z,30.04
2022-10-23T12:17:36.925Z,30.01
2022-10-23T12:20:38.728Z,29.72
2022-10-23T12:23:42.150Z,28.78
2022-10-23T12:26:28.829Z,28.20
2022-10-23T12:29:05.004Z,27.94
2022-10-23T12:31:47.028Z,27.84
2022-10-23T12:34:29.389Z,27.66
2022-10-23T12:37:15.915Z,27.35
2022-10-23T12:39:43.884Z,27.33
2022-10-23T12:42:18.777Z,27.28
2022-10-23T12:44:46.825Z,26.86
2022-10-23T12:47:19.810Z,26.68
2022-10-23T12:49:52.425Z,26.40
2022-10-23T12:52:22.094Z,26.02
2022-10-23T12:54:50.899Z,26.02
2022-10-23T12:57:23.346Z,25.80
2022-10-23T12:59:52.531Z,25.64
2022-10-23T13:02:26.304Z,26.03
2022-10-23T13:04:58.526Z,26.65
2022-10-23T13:07:28.961Z,26.90
2022-10-23T13:10:01.889Z,26.95
2022-10-23T13:12:39.616Z,27.53
2022-10-23T13:15:18.298Z,27.65
2022-10-23T13:17:48.031Z,27.97
2022-10-23T13:20:26.380Z,27.93
2022-10-23T13:23:00.355Z,28.11
2022-10-23T13:25:31.114Z,28.31
2022-10-23T13:28:20.282Z,28.20
2022-10-23T13:31:23.952Z,28.24
2022-10-23T13:34:04.583Z,28.27
2022-10-23T13:36:37.161Z,28.33
2022-10-23T13:39:15.869Z,28.11
2022-10-23T13:41:45.995Z,27.89
2022-10-23T13:44:15.620Z,27.84
2022-10-23T13:46:44.239Z,27.85
2022-10-23T13:49:12.306Z,27.79
2022-10-23T13:51:51.045Z,27.59
2022-10-23T13:54:21.475Z,27.42
2022-10-23T13:56:51.075Z,27.22
2022-10-23T13:59:25.895Z,27.10
2022-10-23T14:01:55.881Z,27.10
2022-10-23T14:04:24.003Z,27.09
2022-10-23T14:06:58.610Z,27.02
2022-10-23T14:09:26.921Z,27.19
2022-10-23T14:11:54.831Z,27.07
2022-10-23T14:14:22.772Z,27.00
2022-10-23T14:16:52.799Z,26.90
2022-10-23T14:19:20.899Z,26.87
2022-10-23T14:21:48.798Z,26.55
2022-10-23T14:24:18.136Z,26.48
2022-10-23T14:26:46.081Z,26.43
2022-10-23T14:29:21.297Z,26.41
2022-10-23T14:31:52.120Z,26.45
2022-10-23T14:34:20.106Z,26.26
2022-10-23T14:36:50.660Z,26.27
2022-10-23T14:39:25.927Z,26.26
2022-10-23T14:41:53.899Z,26.25
2022-10-23T14:44:21.818Z,26.12
2022-10-23T14:46:49.731Z,26.01
2022-10-23T14:49:17.654Z,25.91
2022-10-23T14:51:45.642Z,25.58
2022-10-23T14:54:13.551Z,25.45
2022-10-23T14:56:42.891Z,25.23
2022-10-23T14:59:11.747Z,25.03
2022-10-23T15:01:43.896Z,24.82
2022-10-23T15:04:14.677Z,24.60
2022-10-23T15:06:43.270Z,24.55
2022-10-23T15:09:11.288Z,24.34
2022-10-23T15:11:39.314Z,23.87
2022-10-23T15:14:09.068Z,23.64
2022-10-23T15:16:41.380Z,23.53
2022-10-23T15:19:13.490Z,23.40
2022-10-23T15:21:45.496Z,23.04
2022-10-23T15:24:13.393Z,23.17
2022-10-23T15:26:43.126Z,23.17
2022-10-23T15:29:14.507Z,22.95
2022-10-23T15:31:50.447Z,22.76
2022-10-23T15:34:21.042Z,22.75
2022-10-23T15:36:49.547Z,22.47
2022-10-23T15:39:20.231Z,22.41
2022-10-23T15:41:51.082Z,22.13
2022-10-23T15:44:22.861Z,22.09
2022-10-23T15:46:51.661Z,21.97
2022-10-23T15:49:20.664Z,21.93
2022-10-23T15:51:48.648Z,21.90
2022-10-23T15:54:19.211Z,21.78
2022-10-23T15:56:49.106Z,21.58
2022-10-23T15:59:17.454Z,21.37
2022-10-23T16:01:46.961Z,21.20
2022-10-23T16:04:16.088Z,21.19
2022-10-23T16:06:44.753Z,21.08
2022-10-23T16:09:12.648Z,21.13
2022-10-23T16:11:42.490Z,20.90
2022-10-23T16:14:14.005Z,20.80
2022-10-23T16:16:42.273Z,20.74
2022-10-23T16:19:13.087Z,20.77
2022-10-23T16:21:42.170Z,20.68
2022-10-23T16:24:10.896Z,20.47
2022-10-23T16:26:39.028Z,20.42
2022-10-23T16:29:09.632Z,20.34
2022-10-23T16:31:37.806Z,20.39
2022-10-23T16:34:06.790Z,20.36
2022-10-23T16:36:39.097Z,20.18
2022-10-23T16:39:26.000Z,20.16
2022-10-23T16:42:12.596Z,20.14
2022-10-23T16:45:19.390Z,20.08
2022-10-23T16:47:47.320Z,20.05
2022-10-23T16:50:16.366Z,20.01
2022-10-23T16:52:45.847Z,20.05
2022-10-23T16:55:14.275Z,19.94
2022-10-23T16:57:42.644Z,19.86
2022-10-23T17:00:11.670Z,19.93
2022-10-23T17:02:39.685Z,19.92
2022-10-23T17:05:08.164Z,19.87
2022-10-23T17:07:37.202Z,19.68
2022-10-23T17:10:07.513Z,19.64
2022-10-23T17:12:37.113Z,19.67
2022-10-23T17:15:06.059Z,19.51
2022-10-23T17:17:34.020Z,19.51
2022-10-23T17:20:01.967Z,19.36
2022-10-23T17:22:29.927Z,19.29
2022-10-23T17:24:58.005Z,19.31
2022-10-23T17:27:27.326Z,19.29
2022-10-23T17:29:55.524Z,19.43
2022-10-23T17:32:23.586Z,19.24
2022-10-23T17:34:51.579Z,19.19
2022-10-23T17:37:19.685Z,19.09
2022-10-23T17:39:47.664Z,19.10
2022-10-23T17:42:16.028Z,19.03
2022-10-23T17:44:45.345Z,18.94
2022-10-23T17:47:13.422Z,18.89
2022-10-23T17:49:44.189Z,18.82
2022-10-23T17:52:15.081Z,18.74
2022-10-23T17:54:43.253Z,18.68
2022-10-23T17:57:11.208Z,18.62
2022-10-23T17:59:39.196Z,18.69
2022-10-23T18:02:08.762Z,18.55
2022-10-23T18:04:36.791Z,18.45
2022-10-23T18:07:04.724Z,18.34
2022-10-23T18:09:32.738Z,18.35
2022-10-23T18:12:00.679Z,18.35
2022-10-23T18:14:29.656Z,18.32
2022-10-23T18:16:57.876Z,18.28
2022-10-23T18:19:28.256Z,18.25
2022-10-23T18:21:56.448Z,18.15
2022-10-23T18:24:25.655Z,18.12
2022-10-23T18:26:53.902Z,18.03
2022-10-23T18:29:22.815Z,18.13
2022-10-23T18:31:50.715Z,18.23
2022-10-23T18:34:20.992Z,18.30
2022-10-23T18:36:51.381Z,18.25
2022-10-23T18:39:22.598Z,18.23
2022-10-23T18:41:52.991Z,18.18
2022-10-23T18:44:23.013Z,18.14
2022-10-23T18:46:51.288Z,18.16
2022-10-23T18:49:20.808Z,18.14
2022-10-23T18:51:50.839Z,18.14
2022-10-23T18:54:20.725Z,18.28
2022-10-23T18:56:49.472Z,18.21
2022-10-23T18:59:19.765Z,18.11
2022-10-23T19:01:47.985Z,18.03
2022-10-23T19:04:17.991Z,18.08
2022-10-23T19:06:47.001Z,17.99
2022-10-23T19:09:16.088Z,17.99
2022-10-23T19:11:45.346Z,18.00
2022-10-23T19:14:13.514Z,18.00
2022-10-23T19:16:46.363Z,17.95
2022-10-23T19:19:19.559Z,17.87
2022-10-23T19:21:48.460Z,17.85
2022-10-23T19:24:21.004Z,17.87
2022-10-23T19:26:49.691Z,17.86
2022-10-23T19:29:22.867Z,17.89
2022-10-23T19:31:51.759Z,17.85
2022-10-23T19:34:20.526Z,17.84
2022-10-23T19:36:48.638Z,17.88
2022-10-23T19:39:18.701Z,17.90
2022-10-23T19:41:46.864Z,17.88
2022-10-23T19:44:15.718Z,17.95
2022-10-23T19:46:43.495Z,18.00
2022-10-23T19:49:11.870Z,18.07
2022-10-23T19:51:39.901Z,17.90
2022-10-23T19:54:09.733Z,17.91
2022-10-23T19:56:39.159Z,17.86
2022-10-23T19:59:07.295Z,17.85
2022-10-23T20:01:36.686Z,17.93
2022-10-23T20:04:04.710Z,17.95
2022-10-23T20:06:35.424Z,17.96
2022-10-23T20:09:07.989Z,17.99
2022-10-23T20:11:36.660Z,17.97
2022-10-23T20:14:06.128Z,17.93
2022-10-23T20:16:36.223Z,18.01
2022-10-23T20:19:07.366Z,18.01
2022-10-23T20:21:36.627Z,18.08
2022-10-23T20:24:04.667Z,18.02
2022-10-23T20:26:32.647Z,17.94
2022-10-23T20:29:00.727Z,17.90
2022-10-23T20:31:30.098Z,17.88
2022-10-23T20:33:58.067Z,17.85
2022-10-23T20:36:28.605Z,17.92
2022-10-23T20:38:57.375Z,17.74
2022-10-23T20:41:27.182Z,17.74
2022-10-23T20:43:56.580Z,17.66
2022-10-23T20:46:24.867Z,17.64
2022-10-23T20:48:54.388Z,17.57
2022-10-23T20:51:24.201Z,17.57
2022-10-23T20:53:54.579Z,17.60
2022-10-23T20:56:29.922Z,17.57
2022-10-23T20:58:58.240Z,17.54
2022-10-23T21:01:26.863Z,17.56
2022-10-23T21:03:58.325Z,17.43
2022-10-23T21:06:27.957Z,17.55
2022-10-23T21:08:56.914Z,17.59
2022-10-23T21:11:25.051Z,17.51
2022-10-23T21:13:53.119Z,17.48
2022-10-23T21:16:26.180Z,17.51
2022-10-23T21:18:58.557Z,17.52
2022-10-23T21:21:27.919Z,17.49
2022-10-23T21:23:58.084Z,17.43
2022-10-23T21:26:27.303Z,17.46
2022-10-23T21:29:13.707Z,17.46
2022-10-23T21:31:43.909Z,17.48
2022-10-23T21:34:13.294Z,17.43
2022-10-23T21:37:00.234Z,17.41
2022-10-23T21:39:29.746Z,17.41
2022-10-23T21:41:57.897Z,17.38
2022-10-23T21:44:25.865Z,17.48
2022-10-23T21:46:55.426Z,17.40
2022-10-23T21:49:24.795Z,17.39
2022-10-23T21:51:53.101Z,17.38
2022-10-23T21:54:21.081Z,17.31
2022-10-23T21:56:50.592Z,17.30
2022-10-23T21:59:21.918Z,17.24
2022-10-23T22:01:50.245Z,17.20
2022-10-23T22:04:20.075Z,17.16
2022-10-23T22:06:50.793Z,17.10
2022-10-23T22:09:21.115Z,17.06
2022-10-23T22:11:49.798Z,17.09
2022-10-23T22:14:17.847Z,17.02
2022-10-23T22:16:46.150Z,17.01
2022-10-23T22:19:16.107Z,16.96
2022-10-23T22:21:45.010Z,16.93
2022-10-23T22:24:14.473Z,16.93
2022-10-23T22:26:45.136Z,16.92
2022-10-23T22:29:14.864Z,16.86
2022-10-23T22:31:45.752Z,16.87
2022-10-23T22:34:27.070Z,16.93
2022-10-23T22:37:02.056Z,16.90
2022-10-23T22:39:31.445Z,16.87
2022-10-23T22:41:59.443Z,16.84
2022-10-23T22:44:27.868Z,16.80
2022-10-23T22:46:55.825Z,16.88
2022-10-23T22:49:23.781Z,16.81
2022-10-23T22:51:52.118Z,16.83
2022-10-23T22:54:20.123Z,16.76
2022-10-23T22:56:49.594Z,16.76
2022-10-23T22:59:17.538Z,16.73
2022-10-23T23:01:48.220Z,16.69
2022-10-23T23:07:06.569Z,16.76
2022-10-23T23:09:37.676Z,16.78
2022-10-23T23:12:07.980Z,16.70
2022-10-23T23:14:36.025Z,16.65
2022-10-23T23:17:04.265Z,16.62
2022-10-23T23:19:32.249Z,16.58
2022-10-23T23:22:00.857Z,16.58
2022-10-23T23:24:29.001Z,16.53
2022-10-23T23:26:57.023Z,16.57
2022-10-23T23:29:26.944Z,16.63
2022-10-23T23:31:54.887Z,16.59
2022-10-23T23:34:22.847Z,16.55
2022-10-23T23:36:50.836Z,16.48
2022-10-23T23:39:18.864Z,16.52
2022-10-23T23:41:46.812Z,16.47
2022-10-23T23:44:14.748Z,16.44
2022-10-23T23:46:43.990Z,16.36
2022-10-23T23:49:12.208Z,16.35
2022-10-23T23:51:40.192Z,16.28
2022-10-23T23:54:08.123Z,16.23
2022-10-23T23:56:36.080Z,16.20
2022-10-23T23:59:04.018Z,16.14
